createdAt,value
2023-04-04T00:01:16.240Z,91483.66
2023-04-04T00:02:48.791Z,91488.38
2023-04-04T00:04:20.413Z,91479.47
2023-04-04T00:05:52.153Z,91480.38
2023-04-04T00:07:23.687Z,91486.19
2023-04-04T00:08:55.276Z,91491.56
2023-04-04T00:10:27.278Z,91498.91
2023-04-04T00:11:58.987Z,91492.25
2023-04-04T00:13:30.772Z,91493.16
2023-04-04T00:15:02.963Z,91503.88
2023-04-04T00:16:34.502Z,91496.97
2023-04-04T00:18:06.253Z,91513.03
2023-04-04T00:19:37.927Z,91508.44
2023-04-04T00:21:09.402Z,91510.69
2023-04-04T00:22:41.402Z,91535.91
2023-04-04T00:24:12.993Z,91548.91
2023-04-04T00:25:49.674Z,91561.91
2023-04-04T00:27:21.504Z,91577.69
2023-04-04T00:28:53.802Z,91583.75
2023-04-04T00:30:25.360Z,91587.13
2023-04-04T00:31:57.944Z,91586.09
2023-04-04T00:33:29.604Z,91592.91
2023-04-04T00:35:01.156Z,91604.63
2023-04-04T00:36:32.771Z,91609.69
2023-04-04T00:38:04.318Z,91607.84
2023-04-04T00:39:36.761Z,91605.31
2023-04-04T00:41:08.442Z,91615.28
2023-04-04T00:42:39.968Z,91612.28
2023-04-04T00:44:11.949Z,91602.25
2023-04-04T00:45:43.669Z,91605.88
2023-04-04T00:47:20.116Z,91604.16
2023-04-04T00:48:52.146Z,91598.16
2023-04-04T00:50:23.628Z,91598.63
2023-04-04T00:51:55.458Z,91588.25
2023-04-04T00:53:27.127Z,91597.84
2023-04-04T00:54:58.704Z,91594.59
2023-04-04T00:56:30.774Z,91603.50
2023-04-04T00:58:02.242Z,91587.97
2023-04-04T00:59:33.941Z,91583.88
2023-04-04T01:01:05.802Z,91577.41
2023-04-04T01:02:37.588Z,91571.16
2023-04-04T01:04:09.228Z,91565.97
2023-04-04T01:05:41.205Z,91569.88
2023-04-04T01:07:12.680Z,91567.34
2023-04-04T01:08:44.177Z,91572.84
2023-04-04T01:10:15.706Z,91561.06
2023-04-04T01:11:47.168Z,91551.59
2023-04-04T01:13:18.682Z,91557.88
2023-04-04T01:14:50.180Z,91557.25
2023-04-04T01:16:22.322Z,91545.88
2023-04-04T01:17:55.131Z,91535.19
2023-04-04T01:19:29.104Z,91524.16
2023-04-04T01:21:02.175Z,91518.03
2023-04-04T01:22:33.691Z,91506.56
2023-04-04T01:24:05.555Z,91499.84
2023-04-04T01:25:37.066Z,91494.47
2023-04-04T01:27:09.005Z,91493.88
2023-04-04T01:28:41.574Z,91486.50
2023-04-04T01:30:13.848Z,91488.09
2023-04-04T01:31:48.243Z,91485.41
2023-04-04T01:33:21.171Z,91487.78
2023-04-04T01:34:58.734Z,91491.88
2023-04-04T01:36:31.995Z,91479.47
2023-04-04T01:38:25.539Z,91486.53
2023-04-04T01:40:00.449Z,91489.53
2023-04-04T01:41:33.025Z,91485.94
2023-04-04T01:43:04.737Z,91490.38
2023-04-04T01:44:36.266Z,91477.63
2023-04-04T01:46:08.027Z,91486.31
2023-04-04T01:47:42.693Z,91497.00
2023-04-04T01:49:14.242Z,91495.28
2023-04-04T01:50:46.065Z,91492.91
2023-04-04T01:52:17.556Z,91480.34
2023-04-04T01:53:49.099Z,91478.94
2023-04-04T01:55:21.891Z,91476.41
2023-04-04T01:56:53.398Z,91486.75
2023-04-04T01:58:24.945Z,91481.88
2023-04-04T01:59:56.510Z,91481.25
2023-04-04T02:01:28.441Z,91486.41
2023-04-04T02:03:00.939Z,91484.66
2023-04-04T02:04:32.522Z,91482.47
2023-04-04T02:06:04.099Z,91492.53
2023-04-04T02:07:35.644Z,91500.25
2023-04-04T02:09:07.438Z,91500.25
2023-04-04T02:10:39.422Z,91501.16
2023-04-04T02:12:11.958Z,91492.50
2023-04-04T02:13:44.620Z,91490.41
2023-04-04T02:15:16.155Z,91496.69
2023-04-04T02:16:47.650Z,91507.53
2023-04-04T02:18:19.419Z,91496.97
2023-04-04T02:19:50.946Z,91500.41
2023-04-04T02:21:22.642Z,91492.16
2023-04-04T02:22:54.222Z,91489.78
2023-04-04T02:24:25.790Z,91489.13
2023-04-04T02:25:57.277Z,91485.47
2023-04-04T02:27:29.115Z,91486.41
2023-04-04T02:29:00.782Z,91491.09
2023-04-04T02:30:32.295Z,91494.22
2023-04-04T02:32:03.798Z,91490.44
2023-04-04T02:33:35.713Z,91489.03
2023-04-04T02:35:07.409Z,91486.47
2023-04-04T02:36:38.927Z,91490.69
2023-04-04T02:38:10.433Z,91486.03
2023-04-04T02:39:43.113Z,91490.31
2023-04-04T02:41:15.107Z,91493.66
2023-04-04T02:42:46.676Z,91492.72
2023-04-04T02:44:18.171Z,91485.81
2023-04-04T02:45:49.653Z,91485.66
2023-04-04T02:47:21.141Z,91485.53
2023-04-04T02:48:52.757Z,91485.41
2023-04-04T02:50:24.327Z,91476.59
2023-04-04T02:51:55.842Z,91480.50
2023-04-04T02:53:27.933Z,91486.44
2023-04-04T02:54:59.392Z,91489.59
2023-04-04T02:56:30.884Z,91489.72
2023-04-04T02:58:02.390Z,91490.00
2023-04-04T02:59:33.960Z,91488.09
2023-04-04T03:01:05.496Z,91492.47
2023-04-04T03:02:37.222Z,91495.16
2023-04-04T03:04:09.112Z,91492.81
2023-04-04T03:05:40.736Z,91493.28
2023-04-04T03:07:13.019Z,91487.59
2023-04-04T03:08:44.546Z,91489.13
2023-04-04T03:10:16.387Z,91488.50
2023-04-04T03:11:47.885Z,91488.81
2023-04-04T03:13:19.350Z,91489.13
2023-04-04T03:14:50.811Z,91498.31
2023-04-04T03:16:22.413Z,91495.16
2023-04-04T03:17:54.232Z,91497.06
2023-04-04T03:19:26.011Z,91495.16
2023-04-04T03:20:57.759Z,91498.63
2023-04-04T03:22:29.256Z,91498.31
2023-04-04T03:24:00.756Z,91498.94
2023-04-04T03:25:32.288Z,91495.81
2023-04-04T03:27:03.804Z,91491.88
2023-04-04T03:28:35.296Z,91488.63
2023-04-04T03:30:09.897Z,91494.63
2023-04-04T03:31:41.913Z,91502.78
2023-04-04T03:33:13.539Z,91488.31
2023-04-04T03:34:45.084Z,91491.41
2023-04-04T03:36:16.886Z,91496.44
2023-04-04T03:37:48.345Z,91498.00
2023-04-04T03:39:19.813Z,91501.16
2023-04-04T03:40:51.462Z,91507.16
2023-04-04T03:42:24.201Z,91506.25
2023-04-04T03:43:55.895Z,91506.25
2023-04-04T03:45:27.482Z,91501.84
2023-04-04T03:46:59.958Z,91508.78
2023-04-04T03:48:31.997Z,91504.84
2023-04-04T03:50:03.695Z,91503.28
2023-04-04T03:51:35.310Z,91503.59
2023-04-04T03:53:07.282Z,91513.41
2023-04-04T03:54:39.679Z,91506.00
2023-04-04T03:56:11.391Z,91505.69
2023-04-04T03:57:42.929Z,91508.03
2023-04-04T03:59:14.670Z,91513.50
2023-04-04T04:00:46.356Z,91509.94
2023-04-04T04:02:17.937Z,91519.84
2023-04-04T04:03:49.589Z,91515.59
2023-04-04T04:05:21.153Z,91519.66
2023-04-04T04:06:52.848Z,91510.53
2023-04-04T04:08:25.351Z,91514.75
2023-04-04T04:09:57.060Z,91516.66
2023-04-04T04:11:28.687Z,91517.63
2023-04-04T04:13:00.196Z,91509.78
2023-04-04T04:14:31.773Z,91513.09
2023-04-04T04:16:03.486Z,91512.31
2023-04-04T04:17:35.093Z,91510.78
2023-04-04T04:19:06.853Z,91515.00
2023-04-04T04:20:38.301Z,91519.69
2023-04-04T04:22:10.388Z,91520.31
2023-04-04T04:23:41.887Z,91523.00
2023-04-04T04:25:13.884Z,91529.44
2023-04-04T04:26:45.541Z,91527.88
2023-04-04T04:28:17.102Z,91531.81
2023-04-04T04:29:48.705Z,91529.56
2023-04-04T04:31:20.370Z,91531.00
2023-04-04T04:32:51.901Z,91544.38
2023-04-04T04:34:23.490Z,91542.50
2023-04-04T04:36:00.348Z,91549.75
2023-04-04T04:37:33.619Z,91543.13
2023-04-04T04:39:05.116Z,91545.81
2023-04-04T04:40:36.846Z,91551.16
2023-04-04T04:42:08.372Z,91559.97
2023-04-04T04:43:40.572Z,91571.13
2023-04-04T04:45:12.394Z,91556.19
2023-04-04T04:46:43.945Z,91556.66
2023-04-04T04:48:17.201Z,91563.69
2023-04-04T04:49:49.870Z,91569.19
2023-04-04T04:51:23.823Z,91564.16
2023-04-04T04:52:55.334Z,91570.94
2023-04-04T04:54:26.826Z,91563.22
2023-04-04T04:56:00.718Z,91567.94
2023-04-04T04:57:34.498Z,91564.94
2023-04-04T04:59:07.546Z,91569.66
2023-04-04T05:00:39.664Z,91567.78
2023-04-04T05:02:11.551Z,91564.78
2023-04-04T05:03:44.154Z,91571.34
2023-04-04T05:05:15.837Z,91571.66
2023-04-04T05:06:47.465Z,91572.44
2023-04-04T05:08:19.249Z,91568.31
2023-04-04T05:09:51.478Z,91584.97
2023-04-04T05:11:23.124Z,91578.19
2023-04-04T05:12:57.316Z,91579.78
2023-04-04T05:14:28.935Z,91583.03
2023-04-04T05:16:00.783Z,91583.50
2023-04-04T05:17:32.725Z,91586.97
2023-04-04T05:19:04.362Z,91585.53
2023-04-04T05:20:36.003Z,91581.06
2023-04-04T05:22:08.358Z,91584.22
2023-04-04T05:23:40.074Z,91578.41
2023-04-04T05:25:12.427Z,91579.97
2023-04-04T05:26:44.038Z,91579.38
2023-04-04T05:28:16.510Z,91574.16
2023-04-04T05:29:48.620Z,91578.72
2023-04-04T05:31:20.225Z,91576.97
2023-04-04T05:32:52.745Z,91589.91
2023-04-04T05:34:26.368Z,91590.88
2023-04-04T05:35:59.627Z,91594.06
2023-04-04T05:37:32.062Z,91592.16
2023-04-04T05:39:06.648Z,91589.81
2023-04-04T05:40:39.892Z,91597.84
2023-04-04T05:42:11.729Z,91595.94
2023-04-04T05:43:43.266Z,91599.09
2023-04-04T05:45:15.124Z,91595.13
2023-04-04T05:46:49.162Z,91597.44
2023-04-04T05:48:21.318Z,91600.97
2023-04-04T05:49:53.124Z,91604.94
2023-04-04T05:51:26.770Z,91603.13
2023-04-04T05:52:58.969Z,91605.06
2023-04-04T05:54:32.838Z,91609.72
2023-04-04T05:56:09.259Z,91601.72
2023-04-04T05:57:53.096Z,91603.03
2023-04-04T05:59:24.868Z,91601.28
2023-04-04T06:00:56.622Z,91600.53
2023-04-04T06:02:29.431Z,91598.22
2023-04-04T06:04:01.886Z,91604.25
2023-04-04T06:05:34.662Z,91601.81
2023-04-04T06:07:10.702Z,91602.72
2023-04-04T06:08:53.085Z,91604.28
2023-04-04T06:10:25.892Z,91608.00
2023-04-04T06:11:57.526Z,91606.31
2023-04-04T06:13:31.818Z,91607.09
2023-04-04T06:15:03.607Z,91609.91
2023-04-04T06:16:35.950Z,91616.84
2023-04-04T06:18:09.261Z,91616.72
2023-04-04T06:19:41.191Z,91620.72
2023-04-04T06:21:13.568Z,91619.06
2023-04-04T06:22:45.573Z,91623.00
2023-04-04T06:24:17.131Z,91617.63
2023-04-04T06:25:48.681Z,91616.84
2023-04-04T06:27:20.319Z,91627.13
2023-04-04T06:28:52.212Z,91615.94
2023-04-04T06:30:23.819Z,91618.28
2023-04-04T06:31:55.849Z,91621.28
2023-04-04T06:33:27.408Z,91620.28
2023-04-04T06:34:59.148Z,91624.41
2023-04-04T06:36:30.739Z,91628.53
2023-04-04T06:38:06.660Z,91626.88
2023-04-04T06:39:38.285Z,91629.97
2023-04-04T06:41:09.840Z,91639.72
2023-04-04T06:42:49.446Z,91633.72
2023-04-04T06:44:21.031Z,91639.28
2023-04-04T06:45:52.725Z,91641.00
2023-04-04T06:47:28.099Z,91646.13
2023-04-04T06:48:59.741Z,91644.03
2023-04-04T06:50:36.737Z,91647.59
2023-04-04T06:52:08.381Z,91646.59
2023-04-04T06:53:42.930Z,91646.59
2023-04-04T06:55:14.664Z,91650.63
2023-04-04T06:56:46.370Z,91651.53
2023-04-04T06:58:17.929Z,91654.66
2023-04-04T06:59:49.633Z,91655.44
2023-04-04T07:01:23.447Z,91659.25
2023-04-04T07:02:59.373Z,91656.56
2023-04-04T07:04:34.884Z,91654.66
2023-04-04T07:06:06.753Z,91659.38
2023-04-04T07:07:38.251Z,91664.06
2023-04-04T07:09:18.518Z,91666.31
2023-04-04T07:10:58.516Z,91671.69
2023-04-04T07:12:30.815Z,91670.22
2023-04-04T07:14:02.262Z,91668.22
2023-04-04T07:15:33.864Z,91672.13
2023-04-04T07:17:13.669Z,91667.19
2023-04-04T07:18:49.369Z,91674.13
2023-04-04T07:20:21.458Z,91671.13
2023-04-04T07:21:53.752Z,91674.13
2023-04-04T07:23:25.507Z,91683.97
2023-04-04T07:24:57.172Z,91684.22
2023-04-04T07:26:28.892Z,91678.84
2023-04-04T07:28:11.690Z,91683.44
2023-04-04T07:29:44.688Z,91682.63
2023-04-04T07:31:16.271Z,91678.38
2023-04-04T07:32:48.240Z,91686.44
2023-04-04T07:34:20.770Z,91686.09
2023-04-04T07:35:53.393Z,91693.25
2023-04-04T07:37:26.877Z,91694.38
2023-04-04T07:38:58.810Z,91690.47
2023-04-04T07:40:30.708Z,91694.69
2023-04-04T07:42:02.453Z,91700.84
2023-04-04T07:43:34.117Z,91697.38
2023-04-04T07:45:05.931Z,91703.88
2023-04-04T07:46:40.634Z,91709.56
2023-04-04T07:48:12.456Z,91709.25
2023-04-04T07:49:44.802Z,91711.94
2023-04-04T07:51:16.796Z,91715.03
2023-04-04T07:52:56.191Z,91710.06
2023-04-04T07:54:27.904Z,91709.69
2023-04-04T07:55:59.649Z,91709.66
2023-04-04T07:57:31.391Z,91717.00
2023-04-04T07:59:04.267Z,91708.56
2023-04-04T08:00:39.322Z,91716.56
2023-04-04T08:02:11.461Z,91707.97
2023-04-04T08:03:43.295Z,91710.38
2023-04-04T08:05:15.092Z,91710.78
2023-04-04T08:06:46.784Z,91714.94
2023-04-04T08:08:18.958Z,91715.66
2023-04-04T08:09:50.493Z,91721.22
2023-04-04T08:11:23.175Z,91714.59
2023-04-04T08:12:55.183Z,91722.16
2023-04-04T08:14:27.176Z,91723.91
2023-04-04T08:15:59.122Z,91720.31
2023-04-04T08:17:31.386Z,91724.44
2023-04-04T08:19:04.168Z,91725.53
2023-04-04T08:20:39.018Z,91724.91
2023-04-04T08:22:10.970Z,91730.47
2023-04-04T08:23:42.994Z,91733.66
2023-04-04T08:25:14.624Z,91728.16
2023-04-04T08:26:51.701Z,91727.38
2023-04-04T08:28:29.736Z,91739.66
2023-04-04T08:30:03.954Z,91728.00
2023-04-04T08:31:35.948Z,91736.66
2023-04-04T08:33:08.274Z,91739.34
2023-04-04T08:34:40.792Z,91740.13
2023-04-04T08:36:12.852Z,91741.69
2023-04-04T08:37:46.744Z,91738.72
2023-04-04T08:39:19.095Z,91730.09
2023-04-04T08:40:50.923Z,91734.34
2023-04-04T08:42:23.395Z,91741.00
2023-04-04T08:43:55.149Z,91738.63
2023-04-04T08:45:27.208Z,91742.41
2023-04-04T08:47:05.356Z,91745.88
2023-04-04T08:48:37.818Z,91748.06
2023-04-04T08:50:09.919Z,91756.41
2023-04-04T08:51:44.635Z,91755.78
2023-04-04T08:53:17.636Z,91760.66
2023-04-04T08:54:49.560Z,91766.03
2023-04-04T08:56:21.850Z,91768.09
2023-04-04T08:57:53.519Z,91770.47
2023-04-04T08:59:25.597Z,91772.03
2023-04-04T09:00:57.359Z,91781.16
2023-04-04T09:02:38.698Z,91783.50
2023-04-04T09:04:10.729Z,91782.41
2023-04-04T09:05:43.158Z,91791.22
2023-04-04T09:07:15.549Z,91786.81
2023-04-04T09:08:47.723Z,91778.47
2023-04-04T09:10:19.838Z,91789.53
2023-04-04T09:11:52.099Z,91793.63
2023-04-04T09:13:23.757Z,91784.34
2023-04-04T09:14:55.730Z,91787.97
2023-04-04T09:16:27.565Z,91794.72
2023-04-04T09:17:59.217Z,91794.28
2023-04-04T09:19:30.812Z,91792.53
2023-04-04T09:21:08.689Z,91798.50
2023-04-04T09:22:45.063Z,91802.16
2023-04-04T09:24:16.633Z,91796.63
2023-04-04T09:27:24.188Z,91794.44
2023-04-04T09:28:56.965Z,91787.19
2023-04-04T09:30:29.418Z,91786.25
2023-04-04T09:32:01.556Z,91793.78
2023-04-04T09:33:33.965Z,91799.44
2023-04-04T09:35:06.371Z,91800.72
2023-04-04T09:36:38.275Z,91787.34
2023-04-04T09:38:09.920Z,91794.06
2023-04-04T09:39:41.597Z,91807.75
2023-04-04T09:41:16.264Z,91798.78
2023-04-04T09:42:48.722Z,91801.13
2023-04-04T09:44:20.281Z,91805.69
2023-04-04T09:45:52.288Z,91814.00
2023-04-04T09:47:31.036Z,91806.78
2023-04-04T09:49:04.892Z,91809.94
2023-04-04T09:50:37.891Z,91808.38
2023-04-04T09:52:18.413Z,91813.53
2023-04-04T09:53:51.075Z,91820.91
2023-04-04T09:55:22.964Z,91830.19
2023-04-04T09:56:54.558Z,91817.31
2023-04-04T09:58:27.166Z,91823.75
2023-04-04T10:00:02.489Z,91832.41
2023-04-04T10:01:34.111Z,91820.44
2023-04-04T10:03:05.855Z,91830.34
2023-04-04T10:04:37.433Z,91822.94
2023-04-04T10:06:10.647Z,91824.34
2023-04-04T10:07:44.195Z,91819.47
2023-04-04T10:09:16.286Z,91823.41
2023-04-04T10:11:09.704Z,91830.66
2023-04-04T10:12:45.457Z,91825.78
2023-04-04T10:14:17.350Z,91829.69
2023-04-04T10:15:49.709Z,91825.13
2023-04-04T10:17:21.443Z,91832.34
2023-04-04T10:18:53.684Z,91835.81
2023-04-04T10:20:25.720Z,91843.38
2023-04-04T10:21:57.712Z,91842.25
2023-04-04T10:23:29.664Z,91853.41
2023-04-04T10:25:01.833Z,91859.72
2023-04-04T10:26:33.342Z,91843.69
2023-04-04T10:28:04.883Z,91848.25
2023-04-04T10:29:36.529Z,91849.03
2023-04-04T10:31:20.642Z,91851.09
2023-04-04T10:33:01.553Z,91852.97
2023-04-04T10:34:37.124Z,91855.34
2023-04-04T10:36:09.352Z,91858.31
2023-04-04T10:37:43.542Z,91864.47
2023-04-04T10:39:21.268Z,91861.78
2023-04-04T10:40:52.911Z,91867.59
2023-04-04T10:42:24.507Z,91873.72
2023-04-04T10:43:56.536Z,91871.03
2023-04-04T10:45:29.016Z,91864.59
2023-04-04T10:47:29.906Z,91871.53
2023-04-04T10:49:01.570Z,91872.31
2023-04-04T10:50:34.790Z,91867.44
2023-04-04T10:52:06.350Z,91866.19
2023-04-04T10:53:38.682Z,91877.47
2023-04-04T10:55:11.954Z,91871.69
2023-04-04T10:56:43.501Z,91865.41
2023-04-04T10:58:16.193Z,91870.44
2023-04-04T11:00:06.806Z,91876.56
2023-04-04T11:01:47.612Z,91884.59
2023-04-04T11:03:19.933Z,91875.94
2023-04-04T11:04:51.669Z,91884.13
2023-04-04T11:06:24.498Z,91883.34
2023-04-04T11:08:08.187Z,91890.09
2023-04-04T11:09:56.171Z,91894.16
2023-04-04T11:11:29.828Z,91891.97
2023-04-04T11:13:13.258Z,91897.31
2023-04-04T11:14:59.185Z,91891.31
2023-04-04T11:16:45.661Z,91897.31
2023-04-04T11:18:31.522Z,91900.63
2023-04-04T11:20:05.827Z,91894.66
2023-04-04T11:21:38.255Z,91889.00
2023-04-04T11:23:14.981Z,91900.31
2023-04-04T11:24:46.494Z,91889.44
2023-04-04T11:26:33.805Z,91900.63
2023-04-04T11:28:07.275Z,91909.88
2023-04-04T11:29:55.207Z,91910.19
2023-04-04T11:31:28.017Z,91907.22
2023-04-04T11:33:07.060Z,91911.91
2023-04-04T11:34:40.145Z,91902.31
2023-04-04T11:36:13.248Z,91909.88
2023-04-04T11:38:00.629Z,91911.47
2023-04-04T11:39:33.749Z,91907.81
2023-04-04T11:41:05.441Z,91915.16
2023-04-04T11:42:38.496Z,91907.47
2023-04-04T11:44:10.117Z,91905.13
2023-04-04T11:47:16.367Z,91917.19
2023-04-04T11:48:48.029Z,91909.59
2023-04-04T11:50:21.083Z,91914.81
2023-04-04T11:51:53.046Z,91924.03
2023-04-04T11:53:24.586Z,91911.31
2023-04-04T11:54:56.228Z,91918.19
2023-04-04T11:56:27.803Z,91924.81
2023-04-04T11:58:13.212Z,91924.69
2023-04-04T11:59:48.855Z,91922.22
2023-04-04T12:01:20.890Z,91925.34
2023-04-04T12:02:52.497Z,91927.38
2023-04-04T12:04:25.232Z,91927.38
2023-04-04T12:05:57.795Z,91919.84
2023-04-04T12:07:29.459Z,91929.72
2023-04-04T12:09:04.218Z,91918.06
2023-04-04T12:10:36.390Z,91918.38
2023-04-04T12:12:08.256Z,91927.19
2023-04-04T12:13:44.751Z,91921.53
2023-04-04T12:15:18.008Z,91929.53
2023-04-04T12:16:52.792Z,91931.72
2023-04-04T12:18:24.711Z,91928.16
2023-04-04T12:19:56.327Z,91929.88
2023-04-04T12:21:28.250Z,91923.94
2023-04-04T12:23:00.058Z,91922.84
2023-04-04T12:24:31.818Z,91932.25
2023-04-04T12:26:05.744Z,91932.56
2023-04-04T12:27:37.276Z,91931.94
2023-04-04T12:29:09.718Z,91931.47
2023-04-04T12:30:41.668Z,91932.56
2023-04-04T12:32:14.784Z,91932.88
2023-04-04T12:33:46.754Z,91937.13
2023-04-04T12:35:18.882Z,91936.66
2023-04-04T12:36:53.466Z,91940.13
2023-04-04T12:38:25.379Z,91935.88
2023-04-04T12:39:57.908Z,91937.75
2023-04-04T12:41:29.973Z,91942.59
2023-04-04T12:43:02.297Z,91941.50
2023-04-04T12:44:37.177Z,91949.22
2023-04-04T12:46:09.070Z,91945.13
2023-04-04T12:47:51.546Z,91953.78
2023-04-04T12:49:24.031Z,91949.03
2023-04-04T12:50:59.292Z,91954.56
2023-04-04T12:52:34.518Z,91950.78
2023-04-04T12:54:07.367Z,91955.00
2023-04-04T12:55:39.778Z,91956.94
2023-04-04T12:57:14.576Z,91945.75
2023-04-04T12:58:49.951Z,91950.13
2023-04-04T13:00:21.710Z,91953.41
2023-04-04T13:01:53.316Z,91958.25
2023-04-04T13:03:26.073Z,91958.25
2023-04-04T13:04:58.315Z,91959.84
2023-04-04T13:06:30.757Z,91955.13
2023-04-04T13:08:05.864Z,91964.22
2023-04-04T13:09:48.086Z,91966.59
2023-04-04T13:11:19.723Z,91965.00
2023-04-04T13:12:56.895Z,91966.09
2023-04-04T13:14:29.669Z,91968.59
2023-04-04T13:16:01.692Z,91968.41
2023-04-04T13:17:46.128Z,91975.50
2023-04-04T13:19:17.764Z,91973.75
2023-04-04T13:20:49.776Z,91980.00
2023-04-04T13:22:21.503Z,91982.50
2023-04-04T13:23:53.056Z,91980.84
2023-04-04T13:25:25.893Z,91986.31
2023-04-04T13:26:58.053Z,91985.06
2023-04-04T13:28:29.998Z,91994.44
2023-04-04T13:30:01.942Z,91985.34
2023-04-04T13:31:34.306Z,91987.03
2023-04-04T13:33:07.125Z,91989.34
2023-04-04T13:34:39.891Z,91995.09
2023-04-04T13:36:11.928Z,91997.28
2023-04-04T13:37:43.478Z,91996.50
2023-04-04T13:39:15.132Z,92003.41
2023-04-04T13:40:46.899Z,92005.75
2023-04-04T13:42:18.481Z,92008.13
2023-04-04T13:43:50.820Z,92008.13
2023-04-04T13:45:22.619Z,92005.75
2023-04-04T13:46:54.476Z,92011.59
2023-04-04T13:48:26.539Z,92015.03
2023-04-04T13:49:58.152Z,92006.38
2023-04-04T13:51:29.800Z,92014.00
2023-04-04T13:53:01.415Z,92014.41
2023-04-04T13:54:32.937Z,92016.88
2023-04-04T13:57:40.190Z,92021.34
2023-04-04T13:59:12.532Z,92021.66
2023-04-04T14:00:44.678Z,92023.03
2023-04-04T14:02:16.281Z,92023.94
2023-04-04T14:03:48.109Z,92028.41
2023-04-04T14:05:20.622Z,92023.66
2023-04-04T14:06:52.295Z,92027.41
2023-04-04T14:08:24.018Z,92039.66
2023-04-04T14:09:55.930Z,92035.09
2023-04-04T14:11:31.249Z,92043.91
2023-04-04T14:13:03.750Z,92043.91
2023-04-04T14:14:36.724Z,92036.69
2023-04-04T14:16:09.861Z,92050.53
2023-04-04T14:17:41.869Z,92046.56
2023-04-04T14:19:13.612Z,92048.72
2023-04-04T14:20:45.392Z,92053.06
2023-04-04T14:22:19.417Z,92053.69
2023-04-04T14:23:51.653Z,92055.44
2023-04-04T14:25:24.010Z,92053.84
2023-04-04T14:26:55.846Z,92061.19
2023-04-04T14:28:27.640Z,92059.38
2023-04-04T14:29:59.270Z,92056.72
2023-04-04T14:31:32.692Z,92063.44
2023-04-04T14:33:04.300Z,92069.66
2023-04-04T14:34:35.938Z,92063.84
2023-04-04T14:36:07.691Z,92066.00
2023-04-04T14:37:39.211Z,92068.44
2023-04-04T14:39:10.880Z,92069.06
2023-04-04T14:40:43.109Z,92077.44
2023-04-04T14:42:14.988Z,92076.94
2023-04-04T14:43:46.548Z,92078.81
2023-04-04T14:45:18.380Z,92088.97
2023-04-04T14:46:50.949Z,92079.69
2023-04-04T14:48:22.642Z,92082.16
2023-04-04T14:49:55.006Z,92090.25
2023-04-04T14:51:27.911Z,92087.66
2023-04-04T14:52:59.822Z,92094.97
2023-04-04T14:54:31.518Z,92097.31
2023-04-04T14:56:03.433Z,92110.44
2023-04-04T14:57:39.269Z,92103.00
2023-04-04T14:59:19.220Z,92103.81
2023-04-04T15:00:52.184Z,92101.78
2023-04-04T15:02:24.410Z,92100.56
2023-04-04T15:03:56.608Z,92111.81
2023-04-04T15:05:28.442Z,92105.47
2023-04-04T15:07:05.384Z,92106.66
2023-04-04T15:08:36.914Z,92112.81
2023-04-04T15:10:09.250Z,92123.47
2023-04-04T15:11:40.976Z,92122.69
2023-04-04T15:13:12.644Z,92119.31
2023-04-04T15:14:44.188Z,92124.66
2023-04-04T15:16:17.693Z,92118.53
2023-04-04T15:17:49.843Z,92124.66
2023-04-04T15:19:21.847Z,92131.50
2023-04-04T15:20:53.536Z,92125.41
2023-04-04T15:22:25.098Z,92132.81
2023-04-04T15:23:56.829Z,92130.38
2023-04-04T15:25:29.970Z,92122.69
2023-04-04T15:27:01.764Z,92129.38
2023-04-04T15:28:33.630Z,92129.66
2023-04-04T15:30:05.729Z,92126.19
2023-04-04T15:31:37.479Z,92136.38
2023-04-04T15:33:09.283Z,92134.50
2023-04-04T15:34:41.313Z,92135.34
2023-04-04T15:36:13.021Z,92141.22
2023-04-04T15:37:45.186Z,92144.69
2023-04-04T15:39:17.830Z,92142.59
2023-04-04T15:40:49.509Z,92141.88
2023-04-04T15:42:21.337Z,92146.94
2023-04-04T15:43:53.173Z,92156.28
2023-04-04T15:45:24.780Z,92149.94
2023-04-04T15:46:56.494Z,92144.59
2023-04-04T15:48:28.074Z,92153.38
2023-04-04T15:50:01.425Z,92157.44
2023-04-04T15:51:33.209Z,92161.72
2023-04-04T15:53:04.775Z,92157.75
2023-04-04T15:54:36.532Z,92150.06
2023-04-04T15:56:08.492Z,92157.25
2023-04-04T15:57:40.665Z,92160.28
2023-04-04T15:59:12.324Z,92155.81
2023-04-04T16:00:46.168Z,92163.84
2023-04-04T16:02:17.812Z,92169.97
2023-04-04T16:03:49.893Z,92170.97
2023-04-04T16:05:22.182Z,92162.97
2023-04-04T16:06:53.739Z,92170.75
2023-04-04T16:08:26.176Z,92174.22
2023-04-04T16:09:57.768Z,92165.97
2023-04-04T16:11:29.751Z,92173.63
2023-04-04T16:13:01.484Z,92169.19
2023-04-04T16:14:33.109Z,92170.81
2023-04-04T16:16:04.968Z,92170.28
2023-04-04T16:17:36.597Z,92180.13
2023-04-04T16:19:08.435Z,92179.06
2023-04-04T16:20:40.357Z,92176.91
2023-04-04T16:22:13.884Z,92187.56
2023-04-04T16:23:46.048Z,92178.00
2023-04-04T16:25:18.177Z,92183.31
2023-04-04T16:26:50.548Z,92177.44
2023-04-04T16:28:22.202Z,92179.03
2023-04-04T16:29:53.916Z,92182.19
2023-04-04T16:31:25.643Z,92186.44
2023-04-04T16:32:57.667Z,92182.97
2023-04-04T16:34:29.806Z,92184.09
2023-04-04T16:36:01.757Z,92180.22
2023-04-04T16:37:33.499Z,92187.16
2023-04-04T16:39:06.236Z,92188.25
2023-04-04T16:40:39.585Z,92203.19
2023-04-04T16:42:11.775Z,92193.66
2023-04-04T16:43:43.812Z,92195.59
2023-04-04T16:45:15.798Z,92198.53
2023-04-04T16:46:47.793Z,92195.66
2023-04-04T16:48:19.643Z,92200.44
2023-04-04T16:49:51.532Z,92206.56
2023-04-04T16:51:23.176Z,92214.53
2023-04-04T16:52:55.540Z,92216.63
2023-04-04T16:54:27.052Z,92206.78
2023-04-04T16:55:58.962Z,92210.75
2023-04-04T16:57:30.689Z,92213.41
2023-04-04T16:59:02.448Z,92206.44
2023-04-04T17:00:34.070Z,92212.03
2023-04-04T17:02:08.233Z,92220.59
2023-04-04T17:03:40.404Z,92220.59
2023-04-04T17:05:12.993Z,92215.56
2023-04-04T17:06:44.725Z,92226.69
2023-04-04T17:08:16.380Z,92226.44
2023-04-04T17:09:48.837Z,92233.88
2023-04-04T17:11:21.158Z,92247.38
2023-04-04T17:12:52.877Z,92240.00
2023-04-04T17:14:27.878Z,92245.88
2023-04-04T17:16:00.122Z,92238.97
2023-04-04T17:17:33.812Z,92246.66
2023-04-04T17:19:05.499Z,92246.41
2023-04-04T17:20:38.280Z,92247.47
2023-04-04T17:22:10.225Z,92246.69
2023-04-04T17:23:42.014Z,92250.41
2023-04-04T17:25:13.597Z,92257.63
2023-04-04T17:26:48.063Z,92256.03
2023-04-04T17:28:20.050Z,92255.53
2023-04-04T17:29:51.755Z,92254.44
2023-04-04T17:31:23.316Z,92257.66
2023-04-04T17:32:55.264Z,92255.81
2023-04-04T17:34:27.244Z,92255.63
2023-04-04T17:35:58.775Z,92263.88
2023-04-04T17:37:31.322Z,92255.97
2023-04-04T17:39:03.265Z,92253.31
2023-04-04T17:40:36.585Z,92265.28
2023-04-04T17:42:08.245Z,92263.69
2023-04-04T17:43:39.992Z,92270.59
2023-04-04T17:45:11.890Z,92273.50
2023-04-04T17:46:43.893Z,92275.38
2023-04-04T17:48:15.582Z,92277.25
2023-04-04T17:49:47.925Z,92272.50
2023-04-04T17:51:19.795Z,92273.88
2023-04-04T17:52:52.025Z,92273.88
2023-04-04T17:54:26.123Z,92269.38
2023-04-04T17:55:58.085Z,92276.53
2023-04-04T17:57:29.804Z,92276.53
2023-04-04T17:59:01.849Z,92274.97
2023-04-04T18:00:33.949Z,92275.75
2023-04-04T18:02:06.000Z,92280.25
2023-04-04T18:03:38.163Z,92288.00
2023-04-04T18:05:10.272Z,92285.66
2023-04-04T18:06:42.145Z,92287.50
2023-04-04T18:08:14.352Z,92287.75
2023-04-04T18:09:46.220Z,92291.50
2023-04-04T18:11:22.401Z,92295.47
2023-04-04T18:12:54.105Z,92297.03
2023-04-04T18:14:26.164Z,92292.00
2023-04-04T18:15:57.871Z,92289.56